sensor_id;sensor_type;location;lat;lon;timestamp;pressure;altitude;pressure_sealevel;temperature;humidity
62025;BME280;47978;49.118;12.146;2023-03-14T00:01:48;95848.19;;;9.59;94.50
62025;BME280;47978;49.118;12.146;2023-03-14T00:05:51;95846.56;;;9.58;94.93
62025;BME280;47978;49.118;12.146;2023-03-14T00:09:52;95840.13;;;9.54;94.40
62025;BME280;47978;49.118;12.146;2023-03-14T00:13:54;95833.66;;;9.50;94.24
62025;BME280;47978;49.118;12.146;2023-03-14T00:17:55;95829.59;;;9.48;94.17
62025;BME280;47978;49.118;12.146;2023-03-14T00:21:58;95812.91;;;9.32;94.16
62025;BME280;47978;49.118;12.146;2023-03-14T00:26:00;95797.91;;;9.54;93.88
62025;BME280;47978;49.118;12.146;2023-03-14T00:30:01;95774.91;;;9.50;93.84
62025;BME280;47978;49.118;12.146;2023-03-14T00:34:03;95803.66;;;9.49;94.71
62025;BME280;47978;49.118;12.146;2023-03-14T00:38:05;95825.53;;;9.33;95.62
62025;BME280;47978;49.118;12.146;2023-03-14T00:42:07;95881.50;;;9.33;95.25
62025;BME280;47978;49.118;12.146;2023-03-14T00:46:08;95891.28;;;9.31;94.83
62025;BME280;47978;49.118;12.146;2023-03-14T00:50:10;95903.78;;;9.49;94.84
62025;BME280;47978;49.118;12.146;2023-03-14T00:54:13;95918.84;;;9.52;95.34
62025;BME280;47978;49.118;12.146;2023-03-14T00:58:15;95899.16;;;9.74;95.43
62025;BME280;47978;49.118;12.146;2023-03-14T01:02:16;95909.13;;;9.66;94.92
62025;BME280;47978;49.118;12.146;2023-03-14T01:06:19;95900.25;;;9.61;95.12
62025;BME280;47978;49.118;12.146;2023-03-14T01:10:22;95902.94;;;9.69;95.11
62025;BME280;47978;49.118;12.146;2023-03-14T01:14:23;95882.72;;;9.78;93.53
62025;BME280;47978;49.118;12.146;2023-03-14T01:18:25;95883.72;;;9.73;93.38
62025;BME280;47978;49.118;12.146;2023-03-14T01:22:26;95909.66;;;9.81;93.89
62025;BME280;47978;49.118;12.146;2023-03-14T01:26:30;95892.97;;;9.77;94.45
62025;BME280;47978;49.118;12.146;2023-03-14T01:30:32;95882.50;;;9.71;95.23
62025;BME280;47978;49.118;12.146;2023-03-14T01:34:33;95870.28;;;9.72;95.73
62025;BME280;47978;49.118;12.146;2023-03-14T01:38:35;95858.53;;;9.62;95.55
62025;BME280;47978;49.118;12.146;2023-03-14T01:42:39;95863.09;;;9.58;96.30
62025;BME280;47978;49.118;12.146;2023-03-14T01:46:45;95863.09;;;9.58;95.66
62025;BME280;47978;49.118;12.146;2023-03-14T01:50:46;95857.78;;;9.53;95.67
62025;BME280;47978;49.118;12.146;2023-03-14T01:54:49;95862.44;;;9.61;95.65
62025;BME280;47978;49.118;12.146;2023-03-14T01:58:53;95877.56;;;9.76;94.74
62025;BME280;47978;49.118;12.146;2023-03-14T02:02:56;95869.81;;;9.69;94.65
62025;BME280;47978;49.118;12.146;2023-03-14T02:07:00;95847.72;;;9.69;95.40
62025;BME280;47978;49.118;12.146;2023-03-14T02:11:04;95845.88;;;9.61;95.42
62025;BME280;47978;49.118;12.146;2023-03-14T02:15:07;95820.81;;;9.66;95.60
62025;BME280;47978;49.118;12.146;2023-03-14T02:19:09;95793.22;;;9.66;95.74
62025;BME280;47978;49.118;12.146;2023-03-14T02:23:12;95744.00;;;9.56;96.50
62025;BME280;47978;49.118;12.146;2023-03-14T02:27:17;95748.81;;;9.47;96.86
62025;BME280;47978;49.118;12.146;2023-03-14T02:31:20;95754.69;;;9.45;96.96
62025;BME280;47978;49.118;12.146;2023-03-14T02:35:23;95798.34;;;9.43;96.76
62025;BME280;47978;49.118;12.146;2023-03-14T02:39:26;95793.63;;;9.44;95.94
62025;BME280;47978;49.118;12.146;2023-03-14T02:43:31;95769.28;;;9.46;95.49
62025;BME280;47978;49.118;12.146;2023-03-14T02:47:33;95743.97;;;9.44;95.57
62025;BME280;47978;49.118;12.146;2023-03-14T02:51:34;95767.41;;;9.38;95.03
62025;BME280;47978;49.118;12.146;2023-03-14T02:55:36;95722.00;;;9.35;95.11
62025;BME280;47978;49.118;12.146;2023-03-14T02:59:39;95706.13;;;9.32;95.02
62025;BME280;47978;49.118;12.146;2023-03-14T03:03:40;95749.94;;;9.34;95.02
62025;BME280;47978;49.118;12.146;2023-03-14T03:07:42;95792.53;;;9.24;95.04
62025;BME280;47978;49.118;12.146;2023-03-14T03:11:43;95804.34;;;9.24;94.79
62025;BME280;47978;49.118;12.146;2023-03-14T03:15:46;95822.63;;;9.17;95.00
62025;BME280;47978;49.118;12.146;2023-03-14T03:19:47;95819.94;;;9.08;95.47
62025;BME280;47978;49.118;12.146;2023-03-14T03:23:49;95823.38;;;9.05;96.05
62025;BME280;47978;49.118;12.146;2023-03-14T03:27:50;95815.72;;;9.11;95.49
62025;BME280;47978;49.118;12.146;2023-03-14T03:31:53;95821.41;;;9.06;95.53
62025;BME280;47978;49.118;12.146;2023-03-14T03:35:55;95831.78;;;9.09;94.98
62025;BME280;47978;49.118;12.146;2023-03-14T03:39:56;95818.03;;;9.21;94.48
62025;BME280;47978;49.118;12.146;2023-03-14T03:43:57;95812.88;;;9.19;93.81
62025;BME280;47978;49.118;12.146;2023-03-14T03:48:00;95817.22;;;9.20;92.87
62025;BME280;47978;49.118;12.146;2023-03-14T03:52:02;95810.09;;;9.19;92.77
62025;BME280;47978;49.118;12.146;2023-03-14T03:56:03;95798.59;;;9.17;93.81
62025;BME280;47978;49.118;12.146;2023-03-14T04:00:05;95775.00;;;9.08;93.30
62025;BME280;47978;49.118;12.146;2023-03-14T04:04:08;95777.22;;;9.14;93.90
62025;BME280;47978;49.118;12.146;2023-03-14T04:08:13;95775.94;;;9.12;93.12
62025;BME280;47978;49.118;12.146;2023-03-14T04:12:14;95782.94;;;9.09;93.32
62025;BME280;47978;49.118;12.146;2023-03-14T04:16:17;95776.72;;;9.00;93.67
62025;BME280;47978;49.118;12.146;2023-03-14T04:20:20;95765.13;;;9.07;93.60
62025;BME280;47978;49.118;12.146;2023-03-14T04:24:21;95754.84;;;8.95;93.54
62025;BME280;47978;49.118;12.146;2023-03-14T04:28:23;95751.63;;;8.93;93.38
62025;BME280;47978;49.118;12.146;2023-03-14T04:32:24;95740.41;;;8.98;93.29
62025;BME280;47978;49.118;12.146;2023-03-14T04:36:27;95726.13;;;8.96;93.34
62025;BME280;47978;49.118;12.146;2023-03-14T04:40:28;95729.44;;;8.89;93.80
62025;BME280;47978;49.118;12.146;2023-03-14T04:44:30;95718.50;;;8.81;93.69
62025;BME280;47978;49.118;12.146;2023-03-14T04:48:31;95731.56;;;8.71;94.02
62025;BME280;47978;49.118;12.146;2023-03-14T04:52:34;95724.16;;;8.84;93.56
62025;BME280;47978;49.118;12.146;2023-03-14T04:56:35;95725.41;;;8.87;93.63
62025;BME280;47978;49.118;12.146;2023-03-14T05:00:37;95711.13;;;8.72;93.70
62025;BME280;47978;49.118;12.146;2023-03-14T05:04:40;95732.50;;;8.75;93.46
62025;BME280;47978;49.118;12.146;2023-03-14T05:08:42;95733.03;;;8.69;93.95
62025;BME280;47978;49.118;12.146;2023-03-14T05:12:44;95728.59;;;8.76;93.81
62025;BME280;47978;49.118;12.146;2023-03-14T05:16:45;95729.94;;;8.70;93.96
62025;BME280;47978;49.118;12.146;2023-03-14T05:20:46;95721.44;;;8.63;94.23
62025;BME280;47978;49.118;12.146;2023-03-14T05:24:52;95713.56;;;8.74;93.63
62025;BME280;47978;49.118;12.146;2023-03-14T05:28:54;95728.81;;;8.71;93.47
62025;BME280;47978;49.118;12.146;2023-03-14T05:32:55;95718.72;;;8.75;92.90
62025;BME280;47978;49.118;12.146;2023-03-14T05:36:56;95726.94;;;8.63;93.50
62025;BME280;47978;49.118;12.146;2023-03-14T05:40:59;95720.28;;;8.64;93.59
62025;BME280;47978;49.118;12.146;2023-03-14T05:45:01;95707.09;;;8.70;93.91
62025;BME280;47978;49.118;12.146;2023-03-14T05:49:02;95691.91;;;8.64;93.35
62025;BME280;47978;49.118;12.146;2023-03-14T05:53:03;95686.53;;;8.67;93.37
62025;BME280;47978;49.118;12.146;2023-03-14T05:57:06;95697.09;;;8.65;93.16
62025;BME280;47978;49.118;12.146;2023-03-14T06:01:08;95705.69;;;8.64;92.94
62025;BME280;47978;49.118;12.146;2023-03-14T06:05:09;95699.63;;;8.70;92.44
62025;BME280;47978;49.118;12.146;2023-03-14T06:09:10;95712.41;;;8.75;92.00
62025;BME280;47978;49.118;12.146;2023-03-14T06:13:13;95710.13;;;8.77;91.23
62025;BME280;47978;49.118;12.146;2023-03-14T06:17:15;95693.91;;;8.75;91.78
62025;BME280;47978;49.118;12.146;2023-03-14T06:21:16;95700.81;;;8.82;91.96
62025;BME280;47978;49.118;12.146;2023-03-14T06:25:19;95702.22;;;8.88;90.91
62025;BME280;47978;49.118;12.146;2023-03-14T06:29:22;95695.78;;;8.84;90.68
62025;BME280;47978;49.118;12.146;2023-03-14T06:33:23;95700.28;;;8.88;91.03
62025;BME280;47978;49.118;12.146;2023-03-14T06:37:25;95708.47;;;8.97;90.56
62025;BME280;47978;49.118;12.146;2023-03-14T06:41:26;95688.50;;;9.00;90.05
62025;BME280;47978;49.118;12.146;2023-03-14T06:45:29;95692.63;;;9.06;89.13
62025;BME280;47978;49.118;12.146;2023-03-14T06:49:30;95701.03;;;9.10;89.80
62025;BME280;47978;49.118;12.146;2023-03-14T06:53:32;95683.81;;;9.13;88.97
62025;BME280;47978;49.118;12.146;2023-03-14T06:57:33;95688.97;;;9.14;88.83
62025;BME280;47978;49.118;12.146;2023-03-14T07:01:36;95690.34;;;9.08;88.21
62025;BME280;47978;49.118;12.146;2023-03-14T07:05:37;95690.34;;;9.08;88.54
62025;BME280;47978;49.118;12.146;2023-03-14T07:09:39;95699.44;;;9.09;88.11
62025;BME280;47978;49.118;12.146;2023-03-14T07:13:40;95692.53;;;9.15;88.22
62025;BME280;47978;49.118;12.146;2023-03-14T07:17:43;95678.44;;;9.16;87.33
62025;BME280;47978;49.118;12.146;2023-03-14T07:21:44;95682.09;;;9.08;87.86
62025;BME280;47978;49.118;12.146;2023-03-14T07:25:46;95678.84;;;9.06;87.79
62025;BME280;47978;49.118;12.146;2023-03-14T07:29:47;95689.56;;;9.20;87.68
62025;BME280;47978;49.118;12.146;2023-03-14T07:33:50;95702.31;;;9.12;87.54
62025;BME280;47978;49.118;12.146;2023-03-14T07:37:51;95705.31;;;9.19;86.74
62025;BME280;47978;49.118;12.146;2023-03-14T07:41:52;95704.38;;;9.28;86.12
62025;BME280;47978;49.118;12.146;2023-03-14T07:45:54;95711.56;;;9.41;85.77
62025;BME280;47978;49.118;12.146;2023-03-14T07:50:00;95715.47;;;9.52;85.03
62025;BME280;47978;49.118;12.146;2023-03-14T07:54:02;95719.84;;;9.53;84.52
62025;BME280;47978;49.118;12.146;2023-03-14T07:58:03;95728.81;;;9.50;84.36
62025;BME280;47978;49.118;12.146;2023-03-14T08:02:05;95741.22;;;9.44;84.23
62025;BME280;47978;49.118;12.146;2023-03-14T08:06:07;95744.66;;;9.53;84.00
62025;BME280;47978;49.118;12.146;2023-03-14T08:10:09;95750.88;;;9.50;83.74
62025;BME280;47978;49.118;12.146;2023-03-14T08:14:11;95746.50;;;9.37;83.62
62025;BME280;47978;49.118;12.146;2023-03-14T08:18:12;95744.53;;;9.37;84.23
62025;BME280;47978;49.118;12.146;2023-03-14T08:22:15;95730.66;;;9.46;83.35
62025;BME280;47978;49.118;12.146;2023-03-14T08:26:20;95734.56;;;9.57;83.00
62025;BME280;47978;49.118;12.146;2023-03-14T08:30:21;95731.47;;;9.59;82.54
62025;BME280;47978;49.118;12.146;2023-03-14T08:34:23;95733.19;;;9.63;82.52
62025;BME280;47978;49.118;12.146;2023-03-14T08:38:26;95723.91;;;9.80;81.03
62025;BME280;47978;49.118;12.146;2023-03-14T08:42:27;95712.50;;;10.06;80.73
62025;BME280;47978;49.118;12.146;2023-03-14T08:46:29;95717.31;;;10.22;79.19
62025;BME280;47978;49.118;12.146;2023-03-14T08:50:30;95712.47;;;10.43;78.66
62025;BME280;47978;49.118;12.146;2023-03-14T08:54:33;95708.97;;;10.58;78.05
62025;BME280;47978;49.118;12.146;2023-03-14T08:58:35;95706.50;;;10.97;76.83
62025;BME280;47978;49.118;12.146;2023-03-14T09:02:36;95703.75;;;10.97;76.20
62025;BME280;47978;49.118;12.146;2023-03-14T09:06:37;95700.19;;;10.97;76.17
62025;BME280;47978;49.118;12.146;2023-03-14T09:10:40;95700.03;;;11.06;75.27
62025;BME280;47978;49.118;12.146;2023-03-14T09:14:42;95697.31;;;11.21;74.58
62025;BME280;47978;49.118;12.146;2023-03-14T09:18:43;95698.22;;;11.41;73.99
62025;BME280;47978;49.118;12.146;2023-03-14T09:22:44;95692.16;;;11.52;72.73
62025;BME280;47978;49.118;12.146;2023-03-14T09:26:47;95693.84;;;11.40;73.22
62025;BME280;47978;49.118;12.146;2023-03-14T09:30:49;95692.44;;;11.18;74.15
62025;BME280;47978;49.118;12.146;2023-03-14T09:34:50;95693.66;;;11.49;72.71
62025;BME280;47978;49.118;12.146;2023-03-14T09:38:51;95704.19;;;11.75;71.40
62025;BME280;47978;49.118;12.146;2023-03-14T09:42:54;95702.72;;;11.93;70.76
62025;BME280;47978;49.118;12.146;2023-03-14T09:46:57;95701.13;;;11.92;71.75
62025;BME280;47978;49.118;12.146;2023-03-14T09:51:00;95700.28;;;11.92;70.64
62025;BME280;47978;49.118;12.146;2023-03-14T09:55:03;95702.84;;;11.69;70.09
62025;BME280;47978;49.118;12.146;2023-03-14T09:59:08;95699.47;;;11.76;71.78
62025;BME280;47978;49.118;12.146;2023-03-14T10:03:24;95697.44;;;11.88;70.77
62025;BME280;47978;49.118;12.146;2023-03-14T10:07:27;95677.56;;;12.18;70.59
62025;BME280;47978;49.118;12.146;2023-03-14T10:11:29;95677.16;;;11.84;69.51
62025;BME280;47978;49.118;12.146;2023-03-14T10:15:32;95676.38;;;12.19;70.23
62025;BME280;47978;49.118;12.146;2023-03-14T10:19:34;95662.97;;;12.21;69.70
62025;BME280;47978;49.118;12.146;2023-03-14T10:23:36;95678.19;;;12.11;69.34
62025;BME280;47978;49.118;12.146;2023-03-14T10:27:38;95666.19;;;12.23;68.66
62025;BME280;47978;49.118;12.146;2023-03-14T10:31:48;95652.22;;;12.55;66.26
62025;BME280;47978;49.118;12.146;2023-03-14T10:35:53;95649.81;;;12.73;66.26
62025;BME280;47978;49.118;12.146;2023-03-14T10:39:57;95653.44;;;12.96;66.13
62025;BME280;47978;49.118;12.146;2023-03-14T10:43:59;95644.97;;;12.89;65.32
62025;BME280;47978;49.118;12.146;2023-03-14T10:48:18;95650.84;;;12.84;64.69
62025;BME280;47978;49.118;12.146;2023-03-14T10:52:21;95645.63;;;13.02;64.43
62025;BME280;47978;49.118;12.146;2023-03-14T10:56:33;95639.22;;;12.98;64.15
62025;BME280;47978;49.118;12.146;2023-03-14T11:00:35;95644.81;;;13.01;64.98
62025;BME280;47978;49.118;12.146;2023-03-14T11:04:43;95650.25;;;12.55;65.62
62025;BME280;47978;49.118;12.146;2023-03-14T11:08:49;95654.25;;;12.38;65.17
62025;BME280;47978;49.118;12.146;2023-03-14T11:12:54;95650.38;;;12.63;64.47
62025;BME280;47978;49.118;12.146;2023-03-14T11:16:59;95663.69;;;12.53;65.59
62025;BME280;47978;49.118;12.146;2023-03-14T11:21:04;95663.31;;;12.35;65.60
62025;BME280;47978;49.118;12.146;2023-03-14T11:25:12;95667.88;;;12.28;65.72
62025;BME280;47978;49.118;12.146;2023-03-14T11:29:19;95661.09;;;12.25;65.49
62025;BME280;47978;49.118;12.146;2023-03-14T11:33:22;95656.72;;;12.24;65.00
62025;BME280;47978;49.118;12.146;2023-03-14T11:37:28;95651.06;;;12.21;66.04
62025;BME280;47978;49.118;12.146;2023-03-14T11:41:34;95640.97;;;12.28;65.33
62025;BME280;47978;49.118;12.146;2023-03-14T11:45:38;95640.25;;;12.51;65.11
62025;BME280;47978;49.118;12.146;2023-03-14T11:49:42;95629.38;;;12.62;64.19
62025;BME280;47978;49.118;12.146;2023-03-14T11:53:49;95623.16;;;12.68;64.64
62025;BME280;47978;49.118;12.146;2023-03-14T11:57:53;95620.56;;;12.56;64.78
62025;BME280;47978;49.118;12.146;2023-03-14T12:01:57;95608.50;;;12.68;64.38
62025;BME280;47978;49.118;12.146;2023-03-14T12:06:02;95597.00;;;12.89;64.25
62025;BME280;47978;49.118;12.146;2023-03-14T12:10:08;95608.47;;;13.07;63.22
62025;BME280;47978;49.118;12.146;2023-03-14T12:18:29;95595.88;;;13.13;63.22
62025;BME280;47978;49.118;12.146;2023-03-14T12:22:32;95602.97;;;13.10;63.59
62025;BME280;47978;49.118;12.146;2023-03-14T12:26:45;95594.41;;;12.76;62.84
62025;BME280;47978;49.118;12.146;2023-03-14T12:30:48;95584.78;;;12.70;63.77
62025;BME280;47978;49.118;12.146;2023-03-14T12:34:49;95581.56;;;12.68;63.90
62025;BME280;47978;49.118;12.146;2023-03-14T12:38:59;95580.84;;;12.52;64.14
62025;BME280;47978;49.118;12.146;2023-03-14T12:43:04;95591.75;;;12.41;67.66
62025;BME280;47978;49.118;12.146;2023-03-14T12:51:43;95600.94;;;11.75;76.04
62025;BME280;47978;49.118;12.146;2023-03-14T12:55:45;95592.22;;;11.57;76.87
62025;BME280;47978;49.118;12.146;2023-03-14T12:59:51;95566.63;;;11.95;79.94
62025;BME280;47978;49.118;12.146;2023-03-14T13:03:56;95567.38;;;12.50;78.64
62025;BME280;47978;49.118;12.146;2023-03-14T13:08:03;95576.34;;;12.86;78.24
62025;BME280;47978;49.118;12.146;2023-03-14T13:12:08;95575.16;;;13.07;78.34
62025;BME280;47978;49.118;12.146;2023-03-14T13:16:14;95582.34;;;13.11;77.97
62025;BME280;47978;49.118;12.146;2023-03-14T13:20:19;95564.94;;;13.34;79.07
62025;BME280;47978;49.118;12.146;2023-03-14T13:24:23;95570.56;;;13.64;78.73
62025;BME280;47978;49.118;12.146;2023-03-14T13:28:26;95586.34;;;13.33;79.82
62025;BME280;47978;49.118;12.146;2023-03-14T13:32:29;95596.88;;;13.01;82.32
62025;BME280;47978;49.118;12.146;2023-03-14T13:36:30;95619.53;;;12.64;80.77
62025;BME280;47978;49.118;12.146;2023-03-14T13:40:32;95613.00;;;11.82;80.02
62025;BME280;47978;49.118;12.146;2023-03-14T13:44:35;95596.78;;;11.65;82.99
62025;BME280;47978;49.118;12.146;2023-03-14T13:48:42;95592.56;;;11.87;82.73
62025;BME280;47978;49.118;12.146;2023-03-14T13:52:44;95590.53;;;12.03;82.24
62025;BME280;47978;49.118;12.146;2023-03-14T13:56:46;95586.56;;;12.40;82.22
62025;BME280;47978;49.118;12.146;2023-03-14T14:00:58;95593.84;;;12.67;82.06
62025;BME280;47978;49.118;12.146;2023-03-14T14:05:02;95612.06;;;12.68;82.85
62025;BME280;47978;49.118;12.146;2023-03-14T14:09:10;95660.41;;;12.12;83.50
62025;BME280;47978;49.118;12.146;2023-03-14T14:13:12;95693.50;;;11.42;83.34
62025;BME280;47978;49.118;12.146;2023-03-14T14:17:16;95680.09;;;10.56;82.23
62025;BME280;47978;49.118;12.146;2023-03-14T14:21:20;95682.66;;;10.37;83.48
62025;BME280;47978;49.118;12.146;2023-03-14T14:25:22;95682.59;;;9.96;84.97
62025;BME280;47978;49.118;12.146;2023-03-14T14:29:25;95701.69;;;10.01;86.68
62025;BME280;47978;49.118;12.146;2023-03-14T14:33:27;95707.00;;;9.94;86.33
62025;BME280;47978;49.118;12.146;2023-03-14T14:37:30;95715.03;;;9.87;86.45
62025;BME280;47978;49.118;12.146;2023-03-14T14:41:33;95724.38;;;9.82;86.88
62025;BME280;47978;49.118;12.146;2023-03-14T14:45:37;95727.22;;;9.86;87.92
62025;BME280;47978;49.118;12.146;2023-03-14T14:49:38;95725.75;;;9.76;89.09
62025;BME280;47978;49.118;12.146;2023-03-14T14:53:42;95725.16;;;9.71;89.16
62025;BME280;47978;49.118;12.146;2023-03-14T14:57:47;95738.25;;;9.61;87.73
62025;BME280;47978;49.118;12.146;2023-03-14T15:01:49;95743.75;;;9.61;87.76
62025;BME280;47978;49.118;12.146;2023-03-14T15:05:51;95752.03;;;9.61;87.82
62025;BME280;47978;49.118;12.146;2023-03-14T15:09:53;95745.50;;;9.54;87.70
62025;BME280;47978;49.118;12.146;2023-03-14T15:13:55;95758.81;;;9.52;87.87
62025;BME280;47978;49.118;12.146;2023-03-14T15:17:56;95766.09;;;9.56;88.27
62025;BME280;47978;49.118;12.146;2023-03-14T15:21:58;95776.19;;;9.64;88.60
62025;BME280;47978;49.118;12.146;2023-03-14T15:26:01;95787.50;;;9.72;89.13
62025;BME280;47978;49.118;12.146;2023-03-14T15:30:03;95794.47;;;9.57;89.23
62025;BME280;47978;49.118;12.146;2023-03-14T15:34:04;95818.53;;;9.35;88.21
62025;BME280;47978;49.118;12.146;2023-03-14T15:38:08;95825.31;;;9.26;89.24
62025;BME280;47978;49.118;12.146;2023-03-14T15:42:12;95858.13;;;9.18;89.27
62025;BME280;47978;49.118;12.146;2023-03-14T15:46:13;95875.34;;;8.94;88.12
62025;BME280;47978;49.118;12.146;2023-03-14T15:50:15;95897.31;;;8.82;88.38
62025;BME280;47978;49.118;12.146;2023-03-14T15:54:16;95919.09;;;8.75;87.77
62025;BME280;47978;49.118;12.146;2023-03-14T15:58:20;95943.16;;;8.57;87.44
62025;BME280;47978;49.118;12.146;2023-03-14T16:02:22;95963.41;;;8.05;86.45
62025;BME280;47978;49.118;12.146;2023-03-14T16:06:23;95991.44;;;7.90;87.84
62025;BME280;47978;49.118;12.146;2023-03-14T16:10:25;95992.44;;;7.85;84.66
62025;BME280;47978;49.118;12.146;2023-03-14T16:14:29;95997.44;;;7.92;83.54
62025;BME280;47978;49.118;12.146;2023-03-14T16:18:31;95999.81;;;8.11;81.64
62025;BME280;47978;49.118;12.146;2023-03-14T16:22:33;96012.31;;;8.08;80.63
62025;BME280;47978;49.118;12.146;2023-03-14T16:26:34;96024.94;;;7.92;79.85
62025;BME280;47978;49.118;12.146;2023-03-14T16:30:37;96045.53;;;7.77;80.25
62025;BME280;47978;49.118;12.146;2023-03-14T16:34:38;96055.38;;;7.70;80.05
62025;BME280;47978;49.118;12.146;2023-03-14T16:38:40;96064.28;;;7.75;79.57
62025;BME280;47978;49.118;12.146;2023-03-14T16:42:42;96070.28;;;7.69;76.01
62025;BME280;47978;49.118;12.146;2023-03-14T16:47:05;96085.94;;;7.59;77.27
62025;BME280;47978;49.118;12.146;2023-03-14T16:51:11;96097.28;;;7.58;76.40
62025;BME280;47978;49.118;12.146;2023-03-14T16:55:12;96104.22;;;7.47;74.13
62025;BME280;47978;49.118;12.146;2023-03-14T16:59:14;96112.13;;;7.39;74.24
62025;BME280;47978;49.118;12.146;2023-03-14T17:03:21;96124.72;;;7.32;73.90
62025;BME280;47978;49.118;12.146;2023-03-14T17:07:23;96133.44;;;7.25;74.08
62025;BME280;47978;49.118;12.146;2023-03-14T17:11:24;96151.38;;;7.22;74.42
62025;BME280;47978;49.118;12.146;2023-03-14T17:15:26;96169.47;;;7.15;73.15
62025;BME280;47978;49.118;12.146;2023-03-14T17:19:28;96176.66;;;7.02;74.00
62025;BME280;47978;49.118;12.146;2023-03-14T17:23:30;96193.66;;;7.04;72.99
62025;BME280;47978;49.118;12.146;2023-03-14T17:27:32;96206.38;;;7.00;70.65
62025;BME280;47978;49.118;12.146;2023-03-14T17:31:33;96217.22;;;6.96;70.41
62025;BME280;47978;49.118;12.146;2023-03-14T17:35:36;96230.09;;;6.87;69.10
62025;BME280;47978;49.118;12.146;2023-03-14T17:39:38;96239.25;;;6.83;68.82
62025;BME280;47978;49.118;12.146;2023-03-14T17:43:39;96254.81;;;6.87;69.34
62025;BME280;47978;49.118;12.146;2023-03-14T17:47:41;96264.63;;;6.80;69.08
62025;BME280;47978;49.118;12.146;2023-03-14T17:51:43;96274.28;;;6.77;68.07
62025;BME280;47978;49.118;12.146;2023-03-14T17:55:46;96281.44;;;6.78;68.84
62025;BME280;47978;49.118;12.146;2023-03-14T17:59:48;96297.41;;;6.76;67.11
62025;BME280;47978;49.118;12.146;2023-03-14T18:03:49;96305.97;;;6.74;66.92
62025;BME280;47978;49.118;12.146;2023-03-14T18:07:52;96314.88;;;6.80;67.24
62025;BME280;47978;49.118;12.146;2023-03-14T18:11:53;96321.22;;;6.81;68.79
62025;BME280;47978;49.118;12.146;2023-03-14T18:16:08;96336.84;;;6.80;67.52
62025;BME280;47978;49.118;12.146;2023-03-14T18:20:11;96353.97;;;6.77;66.44
62025;BME280;47978;49.118;12.146;2023-03-14T18:24:13;96357.03;;;6.75;67.79
62025;BME280;47978;49.118;12.146;2023-03-14T18:28:15;96371.47;;;6.81;66.85
62025;BME280;47978;49.118;12.146;2023-03-14T18:32:17;96372.78;;;6.84;67.02
62025;BME280;47978;49.118;12.146;2023-03-14T18:36:18;96381.31;;;6.82;66.93
62025;BME280;47978;49.118;12.146;2023-03-14T18:40:21;96396.81;;;6.78;66.96
62025;BME280;47978;49.118;12.146;2023-03-14T18:44:22;96403.94;;;6.79;67.45
62025;BME280;47978;49.118;12.146;2023-03-14T18:48:24;96404.72;;;6.80;66.91
62025;BME280;47978;49.118;12.146;2023-03-14T18:52:25;96411.66;;;6.77;66.24
62025;BME280;47978;49.118;12.146;2023-03-14T18:56:28;96420.41;;;6.79;66.27
62025;BME280;47978;49.118;12.146;2023-03-14T19:00:30;96429.28;;;6.76;66.48
62025;BME280;47978;49.118;12.146;2023-03-14T19:04:31;96433.34;;;6.65;65.76
62025;BME280;47978;49.118;12.146;2023-03-14T19:08:33;96440.06;;;6.59;66.27
62025;BME280;47978;49.118;12.146;2023-03-14T19:12:36;96453.28;;;6.57;65.12
62025;BME280;47978;49.118;12.146;2023-03-14T19:16:38;96462.75;;;6.50;65.80
62025;BME280;47978;49.118;12.146;2023-03-14T19:20:39;96466.03;;;6.52;65.29
62025;BME280;47978;49.118;12.146;2023-03-14T19:24:41;96471.19;;;6.54;64.93
62025;BME280;47978;49.118;12.146;2023-03-14T19:28:44;96486.88;;;6.53;65.49
62025;BME280;47978;49.118;12.146;2023-03-14T19:32:45;96496.00;;;6.63;64.97
62025;BME280;47978;49.118;12.146;2023-03-14T19:36:47;96494.41;;;6.62;63.52
62025;BME280;47978;49.118;12.146;2023-03-14T19:40:48;96499.09;;;6.61;63.82
62025;BME280;47978;49.118;12.146;2023-03-14T19:44:51;96507.31;;;6.61;64.39
62025;BME280;47978;49.118;12.146;2023-03-14T19:48:52;96511.31;;;6.69;63.74
62025;BME280;47978;49.118;12.146;2023-03-14T19:52:54;96517.50;;;6.61;63.41
62025;BME280;47978;49.118;12.146;2023-03-14T19:56:56;96525.75;;;6.61;64.16
62025;BME280;47978;49.118;12.146;2023-03-14T20:00:59;96537.63;;;6.56;64.18
62025;BME280;47978;49.118;12.146;2023-03-14T20:05:01;96540.38;;;6.56;64.38
62025;BME280;47978;49.118;12.146;2023-03-14T20:09:02;96549.75;;;6.69;64.42
62025;BME280;47978;49.118;12.146;2023-03-14T20:13:04;96553.59;;;6.68;64.58
62025;BME280;47978;49.118;12.146;2023-03-14T20:17:20;96565.13;;;6.70;64.45
62025;BME280;47978;49.118;12.146;2023-03-14T20:21:22;96564.06;;;6.66;64.92
62025;BME280;47978;49.118;12.146;2023-03-14T20:25:23;96563.34;;;6.60;65.58
62025;BME280;47978;49.118;12.146;2023-03-14T20:29:25;96562.22;;;6.47;66.34
62025;BME280;47978;49.118;12.146;2023-03-14T20:33:28;96571.94;;;6.26;75.12
62025;BME280;47978;49.118;12.146;2023-03-14T20:37:29;96562.03;;;6.11;77.63
62025;BME280;47978;49.118;12.146;2023-03-14T20:41:30;96565.06;;;5.96;79.38
62025;BME280;47978;49.118;12.146;2023-03-14T20:45:32;96568.44;;;5.88;80.48
62025;BME280;47978;49.118;12.146;2023-03-14T20:49:35;96576.00;;;5.77;81.13
62025;BME280;47978;49.118;12.146;2023-03-14T20:53:36;96576.88;;;5.91;80.74
62025;BME280;47978;49.118;12.146;2023-03-14T20:57:38;96582.22;;;5.82;81.32
62025;BME280;47978;49.118;12.146;2023-03-14T21:01:39;96586.75;;;5.73;81.88
62025;BME280;47978;49.118;12.146;2023-03-14T21:05:42;96587.88;;;5.53;82.64
62025;BME280;47978;49.118;12.146;2023-03-14T21:09:44;96590.16;;;5.46;83.01
62025;BME280;47978;49.118;12.146;2023-03-14T21:13:45;96601.13;;;5.46;83.44
62025;BME280;47978;49.118;12.146;2023-03-14T21:17:47;96603.06;;;5.46;83.40
62025;BME280;47978;49.118;12.146;2023-03-14T21:21:49;96603.38;;;5.44;83.17
62025;BME280;47978;49.118;12.146;2023-03-14T21:25:51;96606.97;;;5.39;84.07
62025;BME280;47978;49.118;12.146;2023-03-14T21:29:52;96606.00;;;5.30;84.33